Time;durP1;ratioP1;P1;durP2;ratioP2;P2;SDS_P1;SDS_P2;PMS_P1;PMS_P2;Temp;Humidity;BMP_temperature;BMP_pressure;BME280_temperature;BME280_humidity;BME280_pressure;Samples;Min_cycle;Max_cycle;Signal;HPM_P1;HPM_P2
2020/12/03 17:32:44;;;;;;;15.38;6.88;;;2.40;72.40;;;;;;5123350;27;890997;-81
2020/12/03 17:35:10;;;;;;;16.88;8.30;;;2.40;72.40;;;;;;5131313;27;20034;-84
2020/12/03 17:37:40;;;;;;;15.48;7.95;;;2.40;72.50;;;;;;5132343;28;20039;-89
2020/12/03 17:40:10;;;;;;;15.80;8.88;;;2.40;72.40;;;;;;5130760;28;20039;-84
2020/12/03 17:42:37;;;;;;;17.10;8.45;;;2.40;72.40;;;;;;5132586;28;20609;-84
2020/12/03 17:45:05;;;;;;;15.52;8.15;;;2.40;72.40;;;;;;5131248;27;20059;-84
2020/12/03 17:47:32;;;;;;;13.52;7.28;;;2.40;72.30;;;;;;5113427;28;20028;-85
2020/12/03 17:49:58;;;;;;;12.98;7.50;;;2.40;72.20;;;;;;5131525;28;20047;-81
2020/12/03 17:52:24;;;;;;;17.88;8.88;;;2.40;72.20;;;;;;5131115;28;20031;-83
2020/12/03 17:54:50;;;;;;;12.80;7.20;;;2.40;72.50;;;;;;5131481;28;20035;-85
2020/12/03 17:57:17;;;;;;;15.77;7.65;;;2.40;72.30;;;;;;5133111;27;20035;-84
2020/12/03 17:59:43;;;;;;;13.07;7.53;;;2.40;72.40;;;;;;5132534;27;20039;-83
2020/12/03 18:02:12;;;;;;;14.68;7.28;;;2.50;73.90;;;;;;5133532;28;20035;-81
2020/12/03 18:04:38;;;;;;;15.48;8.07;;;2.50;74.20;;;;;;5133974;28;20328;-83
2020/12/03 18:07:04;;;;;;;14.90;7.43;;;2.50;74.10;;;;;;5137217;28;20128;-85
2020/12/03 18:09:30;;;;;;;17.95;7.25;;;2.50;73.90;;;;;;5140176;27;20528;-88
2020/12/03 18:11:58;;;;;;;15.25;7.57;;;2.50;73.70;;;;;;5137073;28;20074;-88
2020/12/03 18:14:24;;;;;;;13.82;7.63;;;2.50;73.50;;;;;;5137836;28;20035;-89
2020/12/03 18:16:50;;;;;;;12.95;6.85;;;2.50;73.40;;;;;;5141158;27;20038;-88
2020/12/03 18:19:16;;;;;;;14.30;8.02;;;2.50;73.20;;;;;;5137231;27;20110;-90
2020/12/03 18:21:42;;;;;;;14.20;6.82;;;2.50;73.20;;;;;;5137823;28;20034;-85
2020/12/03 18:24:08;;;;;;;15.35;7.30;;;2.50;73.00;;;;;;5137351;28;20043;-86
2020/12/03 18:26:35;;;;;;;15.98;7.38;;;2.50;73.00;;;;;;5120167;28;20032;-86
2020/12/03 18:29:03;;;;;;;12.73;6.55;;;2.50;72.90;;;;;;5134157;28;20447;-81
2020/12/03 18:31:41;;;;;;;12.23;6.32;;;2.50;72.80;;;;;;5129768;27;20501;-80
2020/12/03 18:34:09;;;;;;;12.57;6.85;;;2.50;72.80;;;;;;5129603;28;20071;-84
2020/12/03 18:36:35;;;;;;;11.30;6.72;;;2.50;72.60;;;;;;5129412;28;20394;-82
2020/12/03 18:39:05;;;;;;;12.65;6.50;;;2.50;72.60;;;;;;5131592;28;20397;-85
2020/12/03 18:41:38;;;;;;;16.98;7.70;;;2.50;72.60;;;;;;5132141;27;20442;-86
2020/12/03 18:44:04;;;;;;;17.63;7.47;;;2.60;72.70;;;;;;5114941;28;20138;-84
2020/12/03 18:46:29;;;;;;;11.45;6.70;;;2.50;72.60;;;;;;5117846;28;20513;-86
2020/12/03 18:48:56;;;;;;;16.17;7.25;;;2.50;72.60;;;;;;5119148;28;20067;-88
2020/12/03 18:51:22;;;;;;;14.18;8.15;;;2.50;72.50;;;;;;5125163;28;20035;-87
2020/12/03 18:53:48;;;;;;;16.10;7.70;;;2.60;72.60;;;;;;5123657;28;20130;-89
2020/12/03 18:56:14;;;;;;;13.70;7.00;;;2.60;72.50;;;;;;5129947;28;20032;-89
2020/12/03 18:58:40;;;;;;;13.45;6.65;;;2.60;72.70;;;;;;5133459;28;20058;-90
2020/12/03 19:01:07;;;;;;;14.35;7.18;;;2.50;72.70;;;;;;5133007;28;20031;-91
2020/12/03 19:03:34;;;;;;;15.57;7.03;;;2.60;72.70;;;;;;5129875;28;20031;-90
2020/12/03 19:06:01;;;;;;;14.77;7.25;;;2.60;72.80;;;;;;5129616;28;20068;-90
2020/12/03 19:08:31;;;;;;;15.35;7.30;;;2.60;72.90;;;;;;5128686;28;20027;-90
2020/12/03 19:10:57;;;;;;;16.27;7.57;;;2.60;72.90;;;;;;5131921;28;20031;-88
2020/12/03 19:13:23;;;;;;;16.75;7.07;;;2.60;73.00;;;;;;5132134;28;20044;-89
2020/12/03 19:15:49;;;;;;;13.90;7.38;;;2.60;73.00;;;;;;5128951;28;20045;-87
2020/12/03 19:18:15;;;;;;;15.43;7.15;;;2.60;73.10;;;;;;5121458;28;20050;-83
2020/12/03 19:20:41;;;;;;;14.32;7.30;;;2.60;73.20;;;;;;5114488;28;20052;-85
2020/12/03 19:23:08;;;;;;;14.68;6.72;;;2.60;73.30;;;;;;5115337;28;20092;-80
2020/12/03 19:25:34;;;;;;;15.60;7.05;;;2.60;73.40;;;;;;5128438;28;20043;-91
2020/12/03 19:28:00;;;;;;;14.85;7.22;;;2.60;73.40;;;;;;5133449;28;20038;-90
2020/12/03 19:30:26;;;;;;;14.50;6.88;;;2.60;73.50;;;;;;5134402;28;20032;-91
2020/12/03 19:32:52;;;;;;;14.32;7.82;;;2.60;73.80;;;;;;5134496;28;20039;-92
2020/12/03 19:35:18;;;;;;;16.02;7.55;;;2.60;73.90;;;;;;5137611;27;20031;-91
2020/12/03 19:37:44;;;;;;;15.23;7.75;;;2.60;74.00;;;;;;5119740;28;20042;-89
2020/12/03 19:40:11;;;;;;;17.67;8.43;;;2.60;74.10;;;;;;5135140;28;20036;-92
2020/12/03 19:42:38;;;;;;;13.77;6.80;;;2.60;74.90;;;;;;5134640;28;20070;-90
2020/12/03 19:45:07;;;;;;;18.38;7.82;;;2.60;74.40;;;;;;5131867;28;20032;-84
2020/12/03 19:47:32;;;;;;;16.85;6.80;;;2.60;74.60;;;;;;5133021;28;20069;-91
2020/12/03 19:49:59;;;;;;;14.75;7.20;;;2.60;74.70;;;;;;5134665;28;20527;-89
2020/12/03 19:52:25;;;;;;;15.10;8.02;;;2.60;74.80;;;;;;5122035;28;20039;-88
2020/12/03 19:54:53;;;;;;;13.05;7.22;;;2.60;74.90;;;;;;5125332;28;20070;-89
2020/12/03 19:57:18;;;;;;;12.75;7.28;;;2.60;75.00;;;;;;5130441;28;20026;-89
2020/12/03 19:59:45;;;;;;;15.20;7.43;;;2.60;75.20;;;;;;5119488;28;20007;-88
2020/12/03 20:02:11;;;;;;;15.90;6.85;;;2.60;75.30;;;;;;5133470;28;20091;-89
2020/12/03 20:04:37;;;;;;;15.27;7.35;;;2.60;75.40;;;;;;5129644;28;20035;-88
2020/12/03 20:07:03;;;;;;;13.38;6.82;;;2.60;76.00;;;;;;5122465;28;20085;-87
2020/12/03 20:09:30;;;;;;;13.10;7.28;;;2.60;75.50;;;;;;5127202;28;20091;-92
2020/12/03 20:11:56;;;;;;;12.85;7.32;;;2.60;75.70;;;;;;5133946;28;20047;-90
2020/12/03 20:14:23;;;;;;;15.48;7.28;;;2.60;75.70;;;;;;5136206;28;20031;-88
2020/12/03 20:19:41;;;;;;;13.82;7.63;;;2.60;75.70;;;;;;5037422;28;20053;-84
2020/12/03 20:22:27;;;;;;;;;;;;;;;;;;;;;
2020/12/03 20:24:56;;;;;;;12.75;6.85;;;2.60;76.00;;;;;;5036734;28;20500;-85
2020/12/03 20:27:24;;;;;;;14.18;7.40;;;2.60;76.10;;;;;;5033995;28;20045;-86
2020/12/03 20:29:58;;;;;;;14.50;7.25;;;2.60;76.10;;;;;;5033938;28;20044;-85
2020/12/03 20:32:32;;;;;;;11.80;6.97;;;2.60;76.20;;;;;;5032780;28;20523;-84
2020/12/03 20:35:06;;;;;;;16.58;8.73;;;2.60;76.20;;;;;;5033637;28;20116;-86
2020/12/03 20:37:47;;;;;;;14.20;8.88;;;2.60;76.40;;;;;;5032967;28;20041;-86
2020/12/03 20:40:25;;;;;;;15.23;7.35;;;2.60;76.40;;;;;;5017224;28;20507;-84
2020/12/03 20:42:55;;;;;;;17.08;8.10;;;2.60;76.60;;;;;;5034910;28;20041;-84
2020/12/03 20:45:34;;;;;;;13.88;7.93;;;2.50;77.10;;;;;;5034771;28;20087;-84
2020/12/03 20:48:25;;;;;;;17.63;7.95;;;2.50;77.20;;;;;;5035877;28;20038;-84
2020/12/03 20:50:54;;;;;;;16.58;8.70;;;2.50;76.50;;;;;;5033325;28;20464;-84
2020/12/03 20:53:37;;;;;;;14.18;7.63;;;2.50;76.60;;;;;;5034173;28;20083;-85
2020/12/03 20:56:06;;;;;;;15.98;7.72;;;2.50;76.50;;;;;;5033265;28;20527;-85
2020/12/03 20:58:36;;;;;;;15.00;8.27;;;2.50;76.60;;;;;;5033693;28;20053;-85
2020/12/03 21:01:03;;;;;;;14.88;8.32;;;2.50;77.10;;;;;;5034121;28;20033;-85
2020/12/03 21:03:29;;;;;;;16.77;7.13;;;2.50;76.40;;;;;;5033340;28;20033;-84
2020/12/03 21:06:00;;;;;;;14.13;7.50;;;2.50;76.50;;;;;;5031383;28;20025;-82
2020/12/03 21:08:28;;;;;;;15.70;7.93;;;2.50;76.50;;;;;;5031699;28;20041;-83
2020/12/03 21:11:06;;;;;;;15.50;7.72;;;2.50;76.60;;;;;;5016166;28;20045;-82
2020/12/03 21:13:42;;;;;;;14.57;7.40;;;2.50;76.60;;;;;;5031858;28;20042;-81
2020/12/03 21:16:13;;;;;;;14.80;7.68;;;2.50;76.60;;;;;;5032771;28;20527;-83
2020/12/03 21:18:55;;;;;;;15.02;7.80;;;2.50;76.60;;;;;;5031601;28;20121;-83
2020/12/03 21:21:21;;;;;;;16.92;8.20;;;2.50;76.60;;;;;;5032488;28;20404;-83
2020/12/03 21:23:48;;;;;;;16.33;8.32;;;2.50;76.60;;;;;;5031327;28;20124;-83
2020/12/03 21:26:14;;;;;;;16.92;8.98;;;2.50;76.60;;;;;;5032562;28;20447;-85
2020/12/03 21:28:40;;;;;;;22.63;9.40;;;2.50;76.60;;;;;;5033064;28;20041;-83
2020/12/03 21:31:07;;;;;;;16.48;9.18;;;2.50;76.60;;;;;;5032909;28;20084;-83
2020/12/03 21:33:34;;;;;;;17.30;9.10;;;2.50;76.60;;;;;;5031606;28;20045;-83
2020/12/03 21:36:04;;;;;;;17.83;9.38;;;2.50;76.60;;;;;;5037589;28;20373;-82
2020/12/03 21:38:30;;;;;;;17.40;9.10;;;2.50;76.70;;;;;;5031619;28;20053;-82
2020/12/03 21:40:56;;;;;;;16.05;9.13;;;2.50;76.80;;;;;;5033076;28;20080;-83
2020/12/03 21:43:22;;;;;;;17.35;10.18;;;2.50;76.70;;;;;;5031061;28;20432;-83
2020/12/03 21:45:49;;;;;;;15.93;9.30;;;2.50;76.70;;;;;;5032586;28;20041;-82
2020/12/03 21:48:16;;;;;;;18.13;10.10;;;2.50;76.70;;;;;;5031268;28;20041;-84
2020/12/03 21:50:42;;;;;;;17.35;10.35;;;2.50;76.80;;;;;;5030843;28;20049;-83
2020/12/03 21:53:08;;;;;;;17.40;9.98;;;2.50;76.80;;;;;;5032629;28;20030;-84
2020/12/03 21:55:34;;;;;;;17.90;9.30;;;2.50;76.80;;;;;;5032824;28;20052;-84
2020/12/03 21:58:00;;;;;;;20.05;10.35;;;2.50;76.80;;;;;;5032623;28;20044;-83
2020/12/03 22:00:28;;;;;;;16.48;9.43;;;2.50;76.70;;;;;;5031003;28;20038;-83
2020/12/03 22:02:53;;;;;;;18.13;9.55;;;2.50;76.70;;;;;;5032316;28;20123;-84
2020/12/03 22:05:22;;;;;;;17.40;9.20;;;2.50;76.70;;;;;;5032519;28;20042;-84
2020/12/03 22:07:48;;;;;;;18.15;9.95;;;2.50;76.70;;;;;;5015309;28;20480;-84
2020/12/03 22:10:14;;;;;;;18.02;9.20;;;2.40;76.80;;;;;;5032845;28;20404;-83
2020/12/03 22:12:40;;;;;;;17.00;9.18;;;2.50;76.80;;;;;;5033697;28;20038;-82
2020/12/03 22:15:07;;;;;;;17.73;9.35;;;2.50;76.70;;;;;;5015721;28;20036;-84
2020/12/03 22:17:35;;;;;;;17.55;8.80;;;2.40;76.70;;;;;;5031990;28;20061;-84
2020/12/03 22:20:02;;;;;;;17.52;8.85;;;2.50;76.70;;;;;;5036375;28;20030;-85
2020/12/03 22:22:28;;;;;;;17.88;10.23;;;2.50;76.90;;;;;;5036482;28;20064;-84
2020/12/03 22:24:54;;;;;;;19.77;9.93;;;2.50;76.90;;;;;;5036000;28;20374;-83
2020/12/03 22:27:20;;;;;;;17.52;9.25;;;2.50;76.90;;;;;;5036305;28;20045;-86
2020/12/03 22:29:46;;;;;;;16.40;8.77;;;2.50;76.80;;;;;;5036559;28;20040;-84
2020/12/03 22:32:12;;;;;;;17.02;9.02;;;2.50;76.90;;;;;;5035843;28;20041;-85
2020/12/03 22:34:37;;;;;;;16.00;9.52;;;2.50;76.90;;;;;;5035534;28;20403;-80
2020/12/03 22:37:03;;;;;;;17.50;9.00;;;2.50;77.00;;;;;;5036146;28;20030;-80
2020/12/03 22:39:29;;;;;;;16.88;8.48;;;2.50;76.90;;;;;;5036511;28;20428;-81
2020/12/03 22:41:55;;;;;;;20.95;9.52;;;2.40;76.80;;;;;;5037409;28;20125;-82
2020/12/03 22:44:21;;;;;;;17.25;8.40;;;2.50;76.90;;;;;;5017586;28;20037;-82
2020/12/03 22:46:47;;;;;;;17.30;8.90;;;2.40;76.80;;;;;;5035629;28;20040;-82
2020/12/03 22:49:14;;;;;;;15.60;8.48;;;2.50;76.90;;;;;;5036438;28;20047;-82
2020/12/03 22:51:40;;;;;;;16.60;7.70;;;2.40;76.80;;;;;;5035540;28;20041;-82
2020/12/03 22:54:06;;;;;;;16.35;7.53;;;2.40;76.80;;;;;;5035580;28;20037;-81
2020/12/03 22:56:35;;;;;;;14.77;8.35;;;2.50;76.70;;;;;;5035518;28;20128;-81
2020/12/03 22:59:01;;;;;;;17.65;8.95;;;2.50;76.70;;;;;;5035662;28;20392;-82
2020/12/03 23:01:27;;;;;;;13.95;7.82;;;2.50;76.70;;;;;;5035125;28;20033;-83
2020/12/03 23:03:53;;;;;;;15.27;8.00;;;2.50;76.70;;;;;;5035307;28;20079;-82
2020/12/03 23:06:23;;;;;;;14.57;8.35;;;2.50;76.80;;;;;;5035020;28;20041;-82
2020/12/03 23:08:53;;;;;;;15.52;8.75;;;2.40;76.70;;;;;;5035274;28;20033;-82
2020/12/03 23:11:22;;;;;;;15.70;8.30;;;2.40;76.70;;;;;;5035210;28;20136;-82
2020/12/03 23:13:49;;;;;;;15.63;8.15;;;2.40;76.70;;;;;;5034937;28;20515;-82
2020/12/03 23:16:15;;;;;;;14.25;8.50;;;2.40;76.70;;;;;;5035047;28;20061;-82
2020/12/03 23:18:42;;;;;;;15.50;7.93;;;2.40;76.70;;;;;;5035028;28;20029;-82
2020/12/03 23:21:08;;;;;;;16.77;8.13;;;2.40;76.60;;;;;;5035241;28;20035;-83
2020/12/03 23:23:37;;;;;;;18.85;9.98;;;2.40;76.70;;;;;;5036770;28;20045;-82
2020/12/03 23:26:04;;;;;;;16.90;8.60;;;2.40;76.70;;;;;;5019930;28;20443;-82
2020/12/03 23:28:30;;;;;;;13.27;7.88;;;2.40;76.60;;;;;;5035982;28;20037;-84
2020/12/03 23:30:56;;;;;;;16.83;9.40;;;2.40;76.70;;;;;;5034026;28;20412;-82
2020/12/03 23:33:23;;;;;;;17.02;9.05;;;2.50;76.60;;;;;;5034977;28;20073;-80
2020/12/03 23:35:49;;;;;;;18.80;9.15;;;2.40;76.70;;;;;;5033398;28;20034;-82
2020/12/03 23:38:14;;;;;;;14.38;8.07;;;2.40;76.60;;;;;;5033478;28;20087;-81
2020/12/03 23:40:40;;;;;;;15.88;8.93;;;2.40;76.60;;;;;;5034861;28;20061;-81
2020/12/03 23:43:06;;;;;;;16.70;8.40;;;2.40;76.60;;;;;;5034644;28;20498;-81
2020/12/03 23:45:32;;;;;;;16.88;8.63;;;2.50;76.70;;;;;;5035682;28;20459;-81
2020/12/03 23:47:58;;;;;;;16.90;8.75;;;2.50;76.60;;;;;;5032829;28;20038;-82
2020/12/03 23:50:24;;;;;;;14.98;8.32;;;2.40;76.60;;;;;;5034540;28;20029;-82
2020/12/03 23:52:50;;;;;;;14.63;7.78;;;2.40;76.60;;;;;;5034398;28;20092;-83
2020/12/03 23:55:16;;;;;;;18.08;8.55;;;2.40;76.50;;;;;;5032798;28;20041;-81
2020/12/03 23:57:44;;;;;;;14.90;7.80;;;2.40;76.50;;;;;;5034463;28;20166;-83
